createdAt,value
2018-05-23T00:02:18.049Z,4.37
2018-05-23T00:04:46.490Z,3.63
2018-05-23T00:07:15.602Z,3.30
2018-05-23T00:09:43.985Z,4.07
2018-05-23T00:12:12.352Z,3.57
2018-05-23T00:14:40.695Z,5.00
2018-05-23T00:17:09.038Z,4.37
2018-05-23T00:19:37.438Z,4.27
2018-05-23T00:22:05.824Z,4.23
2018-05-23T00:24:34.212Z,3.87
2018-05-23T00:27:02.591Z,4.50
2018-05-23T00:29:31.801Z,4.03
2018-05-23T00:32:00.153Z,4.40
2018-05-23T00:34:28.502Z,4.30
2018-05-23T00:36:56.864Z,4.03
2018-05-23T00:39:25.228Z,4.07
2018-05-23T00:41:54.352Z,3.97
2018-05-23T00:44:22.683Z,3.40
2018-05-23T00:46:51.078Z,4.03
2018-05-23T00:49:20.209Z,3.90
2018-05-23T00:51:48.586Z,3.80
2018-05-23T00:54:16.932Z,3.30
2018-05-23T00:56:46.086Z,4.40
2018-05-23T00:59:14.423Z,3.80
2018-05-23T01:01:42.792Z,3.60
2018-05-23T01:04:11.183Z,4.10
2018-05-23T01:06:39.539Z,4.17
2018-05-23T01:09:07.906Z,4.00
2018-05-23T01:11:37.057Z,3.93
2018-05-23T01:14:05.425Z,4.40
2018-05-23T01:16:33.777Z,4.87
2018-05-23T01:19:02.916Z,3.93
2018-05-23T01:21:31.269Z,4.03
2018-05-23T01:23:59.616Z,3.80
2018-05-23T01:26:28.009Z,4.13
2018-05-23T01:28:57.161Z,3.90
2018-05-23T01:31:25.573Z,3.43
2018-05-23T01:33:54.710Z,3.80
2018-05-23T01:36:23.105Z,3.87
2018-05-23T01:38:51.445Z,4.30
2018-05-23T01:41:20.601Z,3.90
2018-05-23T01:43:48.972Z,4.43
2018-05-23T01:46:17.310Z,4.10
2018-05-23T01:49:03.551Z,4.17
2018-05-23T01:51:31.924Z,3.50
2018-05-23T01:54:00.318Z,3.80
2018-05-23T01:56:28.666Z,4.53
2018-05-23T01:58:57.049Z,3.53
2018-05-23T02:01:25.485Z,4.30
2018-05-23T02:03:53.863Z,4.17
2018-05-23T02:06:22.254Z,4.20
2018-05-23T02:08:51.475Z,4.40
2018-05-23T02:11:19.792Z,5.03
2018-05-23T02:13:48.119Z,4.20
2018-05-23T02:16:17.258Z,4.50
2018-05-23T02:18:46.409Z,4.20
2018-05-23T02:21:14.784Z,3.90
2018-05-23T02:23:43.928Z,4.37
2018-05-23T02:26:12.306Z,4.10
2018-05-23T02:28:41.484Z,4.40
2018-05-23T02:31:09.831Z,4.63
2018-05-23T02:33:38.927Z,4.10
2018-05-23T02:36:08.040Z,4.17
2018-05-23T02:38:36.386Z,5.10
2018-05-23T02:41:04.760Z,4.23
2018-05-23T02:43:33.137Z,4.77
2018-05-23T02:46:01.548Z,4.40
2018-05-23T02:48:29.925Z,4.20
2018-05-23T02:50:58.281Z,5.00
2018-05-23T02:53:26.716Z,3.83
2018-05-23T02:55:55.090Z,4.17
2018-05-23T02:58:23.492Z,4.23
2018-05-23T03:00:51.866Z,5.10
2018-05-23T03:03:20.207Z,3.87
2018-05-23T03:05:49.355Z,5.07
2018-05-23T03:08:17.737Z,4.87
2018-05-23T03:10:46.124Z,4.50
2018-05-23T03:13:14.469Z,4.33
2018-05-23T03:15:42.845Z,4.57
2018-05-23T03:18:11.206Z,4.43
2018-05-23T03:20:39.582Z,5.10
2018-05-23T03:23:07.958Z,5.20
2018-05-23T03:25:37.106Z,5.63
2018-05-23T03:28:05.530Z,4.60
2018-05-23T03:30:34.676Z,4.20
2018-05-23T03:33:03.051Z,5.37
2018-05-23T03:35:31.440Z,4.73
2018-05-23T03:37:59.839Z,4.90
2018-05-23T03:40:28.221Z,4.73
2018-05-23T03:42:56.602Z,4.30
2018-05-23T03:45:24.998Z,4.60
2018-05-23T03:47:53.411Z,5.47
2018-05-23T03:50:21.807Z,4.97
2018-05-23T03:52:50.204Z,5.40
2018-05-23T03:55:18.612Z,4.50
2018-05-23T03:57:46.994Z,5.17
2018-05-23T04:00:33.033Z,5.20
2018-05-23T04:03:19.080Z,5.47
2018-05-23T04:06:05.154Z,4.53
2018-05-23T04:08:33.536Z,4.90
2018-05-23T04:11:01.905Z,4.90
2018-05-23T04:13:30.276Z,5.10
2018-05-23T04:15:58.730Z,4.90
2018-05-23T04:18:27.903Z,5.30
2018-05-23T04:20:56.310Z,4.43
2018-05-23T04:23:24.738Z,5.40
2018-05-23T04:25:53.113Z,4.63
2018-05-23T04:28:21.492Z,5.40
2018-05-23T04:30:49.900Z,4.67
2018-05-23T04:33:18.410Z,5.30
2018-05-23T04:35:46.785Z,5.47
2018-05-23T04:38:15.171Z,4.23
2018-05-23T04:40:43.551Z,5.37
2018-05-23T04:43:11.961Z,5.00
2018-05-23T04:45:40.324Z,5.27
2018-05-23T04:48:08.716Z,4.90
2018-05-23T04:50:37.118Z,5.23
2018-05-23T04:53:05.484Z,4.60
2018-05-23T04:55:33.888Z,4.77
2018-05-23T04:58:03.087Z,5.00
2018-05-23T05:00:31.500Z,4.60
2018-05-23T05:02:59.890Z,4.87
2018-05-23T05:05:28.245Z,4.40
2018-05-23T05:07:56.632Z,5.17
2018-05-23T05:10:24.975Z,4.70
2018-05-23T05:12:53.391Z,4.47
2018-05-23T05:15:21.763Z,4.73
2018-05-23T05:17:50.863Z,5.20
2018-05-23T05:20:20.017Z,5.07
2018-05-23T05:22:48.361Z,5.20
2018-05-23T05:25:17.503Z,4.60
2018-05-23T05:27:45.894Z,4.97
2018-05-23T05:30:14.273Z,5.23
2018-05-23T05:32:44.164Z,4.70
2018-05-23T05:35:12.564Z,4.67
2018-05-23T05:37:40.924Z,5.07
2018-05-23T05:40:09.258Z,5.03
2018-05-23T05:42:39.580Z,4.90
2018-05-23T05:45:08.756Z,4.20
2018-05-23T05:47:37.128Z,4.60
2018-05-23T05:50:05.497Z,4.33
2018-05-23T05:52:33.856Z,3.80
2018-05-23T05:55:02.233Z,4.20
2018-05-23T05:57:30.612Z,3.80
2018-05-23T05:59:58.987Z,3.87
2018-05-23T06:02:27.342Z,3.87
2018-05-23T06:04:55.692Z,3.63
2018-05-23T06:07:24.082Z,3.07
2018-05-23T06:09:53.296Z,3.63
2018-05-23T06:12:22.444Z,3.50
2018-05-23T06:14:50.794Z,3.00
2018-05-23T06:17:19.162Z,3.70
2018-05-23T06:19:47.602Z,3.33
2018-05-23T06:22:15.988Z,3.07
2018-05-23T06:24:44.328Z,3.10
2018-05-23T06:27:12.740Z,3.53
2018-05-23T06:29:41.874Z,3.50
2018-05-23T06:32:10.292Z,3.57
2018-05-23T06:34:38.649Z,3.13
2018-05-23T06:37:06.993Z,3.77
2018-05-23T06:39:36.143Z,4.23
2018-05-23T06:42:04.508Z,9.70
2018-05-23T06:44:32.880Z,4.43
2018-05-23T06:47:01.262Z,4.57
2018-05-23T06:49:29.704Z,4.67
2018-05-23T06:51:58.845Z,4.70
2018-05-23T06:54:27.271Z,4.73
2018-05-23T06:56:56.417Z,4.10
2018-05-23T06:59:24.751Z,3.90
2018-05-23T07:01:53.861Z,4.10
2018-05-23T07:04:22.219Z,3.83
2018-05-23T07:06:51.372Z,4.60
2018-05-23T07:09:19.708Z,3.50
2018-05-23T07:11:48.804Z,4.40
2018-05-23T07:14:17.965Z,4.13
2018-05-23T07:16:46.337Z,4.47
2018-05-23T07:19:14.708Z,4.23
2018-05-23T07:21:43.085Z,3.33
2018-05-23T07:24:11.453Z,3.13
2018-05-23T07:26:39.832Z,4.07
2018-05-23T07:29:08.259Z,3.63
2018-05-23T07:31:37.452Z,3.83
2018-05-23T07:34:05.792Z,3.40
2018-05-23T07:36:34.161Z,3.80
2018-05-23T07:39:02.501Z,3.53
2018-05-23T07:41:31.735Z,3.60
2018-05-23T07:44:00.176Z,3.40
2018-05-23T07:46:29.287Z,3.80
2018-05-23T07:48:57.663Z,4.03
2018-05-23T07:51:26.792Z,4.07
2018-05-23T07:53:55.163Z,3.67
2018-05-23T07:56:23.559Z,3.63
2018-05-23T07:58:51.906Z,3.27
2018-05-23T08:01:20.301Z,3.20
2018-05-23T08:03:48.640Z,3.30
2018-05-23T08:06:17.748Z,3.10
2018-05-23T08:08:46.107Z,3.93
2018-05-23T08:11:15.202Z,3.50
2018-05-23T08:13:43.657Z,2.70
2018-05-23T08:16:12.036Z,2.73
2018-05-23T08:18:40.391Z,3.10
2018-05-23T08:21:08.764Z,3.47
2018-05-23T08:23:37.148Z,3.37
2018-05-23T08:26:05.580Z,3.40
2018-05-23T08:28:34.679Z,2.93
2018-05-23T08:31:03.790Z,2.90
2018-05-23T08:33:32.160Z,3.00
2018-05-23T08:36:01.310Z,3.83
2018-05-23T08:38:29.675Z,2.70
2018-05-23T08:40:58.046Z,3.23
2018-05-23T08:43:26.418Z,3.60
2018-05-23T08:45:54.825Z,2.40
2018-05-23T08:48:23.188Z,2.70
2018-05-23T08:50:51.584Z,2.30
2018-05-23T08:53:20.026Z,3.10
2018-05-23T08:55:48.375Z,2.53
2018-05-23T08:58:17.528Z,1.83
2018-05-23T09:00:45.877Z,2.10
2018-05-23T09:03:14.258Z,2.07
2018-05-23T09:05:42.662Z,1.90
2018-05-23T09:08:11.059Z,2.07
2018-05-23T09:10:39.409Z,2.00
2018-05-23T09:13:07.769Z,2.07
2018-05-23T09:15:36.165Z,2.23
2018-05-23T09:18:04.541Z,2.20
2018-05-23T09:20:32.923Z,2.30
2018-05-23T09:23:01.271Z,2.90
2018-05-23T09:25:30.501Z,2.00
2018-05-23T09:27:58.801Z,2.20
2018-05-23T09:30:27.162Z,1.70
2018-05-23T09:32:55.535Z,2.17
2018-05-23T09:35:23.929Z,1.70
2018-05-23T09:37:52.308Z,1.70
2018-05-23T09:40:21.217Z,1.50
2018-05-23T09:42:49.613Z,1.47
2018-05-23T09:45:18.069Z,1.70
2018-05-23T09:47:46.517Z,2.10
2018-05-23T09:50:15.643Z,1.67
2018-05-23T09:52:44.003Z,2.00
2018-05-23T09:55:12.592Z,1.63
2018-05-23T09:57:42.952Z,2.07
2018-05-23T10:00:11.354Z,2.20
2018-05-23T10:02:39.728Z,1.50
2018-05-23T10:05:08.076Z,1.83
2018-05-23T10:07:36.472Z,1.37
2018-05-23T10:10:04.817Z,1.90
2018-05-23T10:12:33.156Z,2.10
2018-05-23T10:15:01.514Z,1.80
2018-05-23T10:17:29.861Z,2.47
2018-05-23T10:19:58.210Z,2.50
2018-05-23T10:22:26.589Z,2.80
2018-05-23T10:24:54.981Z,2.20
2018-05-23T10:27:23.348Z,2.50
2018-05-23T10:29:51.958Z,3.20
2018-05-23T10:32:20.333Z,3.10
2018-05-23T10:34:48.713Z,3.20
2018-05-23T10:37:17.090Z,3.40
2018-05-23T10:39:45.563Z,3.27
2018-05-23T10:42:13.907Z,2.83
2018-05-23T10:44:42.287Z,2.83
2018-05-23T10:47:11.423Z,3.17
2018-05-23T10:49:39.781Z,2.67
2018-05-23T10:52:08.999Z,2.57
2018-05-23T10:54:37.357Z,2.70
2018-05-23T10:57:05.786Z,2.60
2018-05-23T10:59:34.157Z,2.30
2018-05-23T11:02:02.617Z,3.10
2018-05-23T11:04:30.955Z,2.90
2018-05-23T11:06:59.321Z,2.90
2018-05-23T11:09:28.423Z,2.97
2018-05-23T11:11:56.767Z,2.60
2018-05-23T11:14:25.128Z,2.73
2018-05-23T11:16:53.478Z,2.60
2018-05-23T11:19:22.573Z,3.03
2018-05-23T11:21:51.824Z,3.17
2018-05-23T11:24:20.188Z,2.90
2018-05-23T11:26:48.521Z,2.80
2018-05-23T11:29:17.636Z,2.73
2018-05-23T11:31:46.011Z,2.87
2018-05-23T11:34:15.189Z,2.40
2018-05-23T11:36:43.565Z,2.73
2018-05-23T11:39:11.899Z,3.47
2018-05-23T11:41:40.277Z,2.83
2018-05-23T11:44:08.707Z,3.03
2018-05-23T11:46:37.086Z,3.00
2018-05-23T11:49:06.233Z,3.23
2018-05-23T11:51:34.654Z,2.53
2018-05-23T11:54:02.996Z,3.03
2018-05-23T11:56:31.371Z,2.87
2018-05-23T11:58:59.736Z,2.87
2018-05-23T12:01:28.075Z,2.73
2018-05-23T12:03:56.422Z,2.47
2018-05-23T12:06:24.787Z,2.30
2018-05-23T12:08:53.213Z,2.73
2018-05-23T12:11:21.599Z,2.80
2018-05-23T12:13:50.737Z,3.33
2018-05-23T12:16:19.156Z,2.87
2018-05-23T12:18:47.491Z,3.10
2018-05-23T12:21:15.848Z,3.30
2018-05-23T12:23:44.980Z,2.83
2018-05-23T12:26:13.324Z,2.70
2018-05-23T12:28:42.425Z,2.90
2018-05-23T12:31:10.931Z,2.90
2018-05-23T12:33:40.039Z,2.83
2018-05-23T12:36:08.454Z,3.10
2018-05-23T12:38:37.570Z,3.50
2018-05-23T12:41:06.793Z,2.70
2018-05-23T12:43:35.056Z,2.40
2018-05-23T12:46:03.464Z,3.13
2018-05-23T12:48:31.811Z,2.57
2018-05-23T12:51:00.154Z,3.13
2018-05-23T12:53:28.520Z,2.90
2018-05-23T12:55:56.920Z,2.60
2018-05-23T12:58:25.284Z,2.80
2018-05-23T13:00:53.641Z,2.70
2018-05-23T13:03:22.050Z,3.07
2018-05-23T13:05:50.387Z,2.60
2018-05-23T13:08:18.752Z,2.90
2018-05-23T13:10:47.139Z,2.80
2018-05-23T13:13:15.496Z,3.30
2018-05-23T13:15:44.640Z,3.27
2018-05-23T13:18:13.115Z,3.00
2018-05-23T13:20:41.455Z,3.40
2018-05-23T13:23:10.574Z,2.60
2018-05-23T13:25:38.928Z,2.87
2018-05-23T13:28:08.170Z,2.40
2018-05-23T13:30:36.561Z,2.00
2018-05-23T13:33:05.007Z,2.30
2018-05-23T13:35:33.421Z,2.93
2018-05-23T13:38:01.780Z,2.80
2018-05-23T13:40:30.120Z,2.33
2018-05-23T13:42:59.264Z,2.47
2018-05-23T13:45:27.610Z,3.60
2018-05-23T13:47:55.989Z,2.50
2018-05-23T13:50:24.369Z,2.73
2018-05-23T13:52:52.834Z,3.10
2018-05-23T13:55:21.313Z,2.80
2018-05-23T13:57:49.723Z,2.67
2018-05-23T14:00:18.092Z,2.97
2018-05-23T14:02:46.477Z,3.07
2018-05-23T14:05:14.836Z,2.60
2018-05-23T14:07:43.212Z,2.23
2018-05-23T14:10:11.580Z,2.60
2018-05-23T14:12:39.944Z,2.30
2018-05-23T14:15:09.092Z,2.47
2018-05-23T14:17:37.555Z,2.10
2018-05-23T14:20:05.879Z,2.70
2018-05-23T14:22:34.282Z,2.23
2018-05-23T14:25:02.660Z,2.50
2018-05-23T14:27:31.018Z,2.73
2018-05-23T14:29:59.425Z,2.30
2018-05-23T14:32:27.792Z,2.97
2018-05-23T14:34:56.141Z,2.57
2018-05-23T14:37:24.515Z,2.53
2018-05-23T14:39:52.892Z,2.30
2018-05-23T14:42:21.317Z,2.40
2018-05-23T14:44:49.701Z,2.67
2018-05-23T14:47:18.090Z,1.90
2018-05-23T14:49:46.438Z,2.60
2018-05-23T14:52:14.810Z,2.23
2018-05-23T14:54:43.194Z,2.30
2018-05-23T14:57:11.575Z,1.90
2018-05-23T14:59:39.927Z,2.07
2018-05-23T15:02:08.308Z,2.60
2018-05-23T15:04:36.690Z,1.77
2018-05-23T15:07:05.112Z,2.20
2018-05-23T15:09:33.498Z,2.20
2018-05-23T15:12:01.870Z,2.47
2018-05-23T15:14:30.221Z,2.10
2018-05-23T15:16:58.658Z,2.10
2018-05-23T15:19:27.806Z,2.60
2018-05-23T15:21:56.153Z,2.23
2018-05-23T15:24:24.532Z,2.20
2018-05-23T15:26:52.876Z,2.07
2018-05-23T15:29:21.261Z,2.40
2018-05-23T15:31:49.638Z,2.03
2018-05-23T15:34:17.981Z,2.03
2018-05-23T15:36:46.360Z,2.33
2018-05-23T15:39:14.711Z,2.43
2018-05-23T15:41:44.025Z,1.90
2018-05-23T15:44:12.356Z,1.80
2018-05-23T15:46:41.503Z,2.30
2018-05-23T15:49:09.877Z,2.50
2018-05-23T15:51:38.293Z,2.37
2018-05-23T15:54:06.692Z,2.23
2018-05-23T15:56:35.079Z,2.63
2018-05-23T15:59:04.216Z,1.70
2018-05-23T16:01:32.562Z,1.50
2018-05-23T16:04:01.703Z,2.37
2018-05-23T16:06:30.113Z,2.00
2018-05-23T16:08:58.457Z,1.57
2018-05-23T16:11:26.845Z,1.43
2018-05-23T16:13:55.291Z,2.10
2018-05-23T16:16:23.635Z,2.00
2018-05-23T16:18:52.848Z,1.67
2018-05-23T16:21:21.989Z,1.93
2018-05-23T16:23:50.327Z,2.40
2018-05-23T16:26:19.507Z,1.87
2018-05-23T16:28:47.868Z,2.33
2018-05-23T16:31:16.219Z,2.00
2018-05-23T16:33:44.633Z,2.30
2018-05-23T16:36:13.010Z,2.50
2018-05-23T16:38:41.416Z,2.17
2018-05-23T16:41:10.579Z,2.57
2018-05-23T16:43:38.976Z,1.70
2018-05-23T16:46:08.115Z,1.90
2018-05-23T16:48:36.466Z,2.07
2018-05-23T16:51:05.639Z,1.90
2018-05-23T16:53:34.022Z,2.13
2018-05-23T16:56:02.425Z,2.13
2018-05-23T16:58:31.588Z,2.70
2018-05-23T17:00:59.929Z,2.07
2018-05-23T17:03:28.323Z,1.80
2018-05-23T17:05:56.682Z,1.43
2018-05-23T17:08:25.075Z,1.90
2018-05-23T17:10:53.441Z,2.53
2018-05-23T17:13:21.804Z,2.00
2018-05-23T17:15:50.962Z,1.77
2018-05-23T17:18:19.340Z,2.10
2018-05-23T17:20:47.696Z,2.10
2018-05-23T17:23:16.070Z,1.90
2018-05-23T17:25:44.456Z,1.40
2018-05-23T17:28:13.034Z,1.37
2018-05-23T17:30:41.404Z,1.47
2018-05-23T17:33:09.798Z,1.70
2018-05-23T17:35:38.247Z,1.87
2018-05-23T17:38:06.611Z,1.40
2018-05-23T17:40:35.757Z,1.53
2018-05-23T17:43:04.152Z,1.93
2018-05-23T17:45:32.562Z,1.80
2018-05-23T17:48:01.730Z,1.90
2018-05-23T17:50:30.072Z,1.43
2018-05-23T17:52:58.430Z,1.53
2018-05-23T17:55:27.565Z,1.60
2018-05-23T17:57:55.932Z,2.10
2018-05-23T18:00:24.304Z,1.70
2018-05-23T18:02:52.685Z,1.97
2018-05-23T18:05:21.044Z,1.60
2018-05-23T18:07:50.156Z,1.60
2018-05-23T18:10:18.624Z,1.63
2018-05-23T18:12:46.973Z,1.70
2018-05-23T18:15:15.327Z,1.53
2018-05-23T18:17:43.737Z,1.70
2018-05-23T18:20:12.906Z,1.97
2018-05-23T18:22:41.507Z,1.40
2018-05-23T18:25:09.988Z,1.70
2018-05-23T18:27:38.373Z,1.90
2018-05-23T18:30:07.497Z,1.50
2018-05-23T18:32:35.903Z,1.43
2018-05-23T18:35:04.289Z,1.73
2018-05-23T18:37:32.633Z,1.87
2018-05-23T18:40:01.765Z,1.77
2018-05-23T18:42:30.156Z,2.13
2018-05-23T18:44:58.558Z,1.60
2018-05-23T18:47:26.965Z,2.07
2018-05-23T18:49:55.345Z,1.77
2018-05-23T18:52:23.704Z,2.30
2018-05-23T18:54:52.070Z,1.50
2018-05-23T18:57:20.482Z,1.83
2018-05-23T18:59:48.881Z,2.40
2018-05-23T19:02:17.284Z,2.37
2018-05-23T19:04:45.683Z,3.03
2018-05-23T19:07:14.476Z,2.10
2018-05-23T19:09:42.866Z,2.17
2018-05-23T19:12:11.245Z,2.67
2018-05-23T19:14:39.642Z,2.80
2018-05-23T19:17:08.008Z,1.93
2018-05-23T19:19:36.522Z,2.00
2018-05-23T19:22:04.830Z,1.30
2018-05-23T19:24:33.274Z,1.50
2018-05-23T19:27:01.621Z,1.73
2018-05-23T19:29:29.991Z,2.00
2018-05-23T19:31:58.446Z,1.57
2018-05-23T19:34:26.816Z,1.57
2018-05-23T19:36:55.201Z,2.10
2018-05-23T19:39:23.571Z,1.90
2018-05-23T19:41:51.921Z,1.67
2018-05-23T19:44:20.336Z,2.03
2018-05-23T19:46:48.702Z,1.50
2018-05-23T19:49:17.078Z,1.80
2018-05-23T19:51:45.439Z,2.00
2018-05-23T19:54:13.795Z,1.70
2018-05-23T19:56:42.961Z,1.80
2018-05-23T19:59:11.327Z,1.73
2018-05-23T20:01:39.696Z,1.90
2018-05-23T20:04:08.065Z,2.70
2018-05-23T20:06:36.442Z,1.67
2018-05-23T20:09:05.613Z,2.10
2018-05-23T20:11:34.753Z,2.90
2018-05-23T20:14:03.106Z,1.67
2018-05-23T20:16:31.544Z,1.80
2018-05-23T20:18:59.889Z,1.70
2018-05-23T20:21:28.265Z,1.50
2018-05-23T20:23:56.644Z,1.53
2018-05-23T20:26:25.008Z,2.10
2018-05-23T20:28:53.389Z,2.30
2018-05-23T20:31:21.751Z,2.03
2018-05-23T20:33:50.128Z,2.10
2018-05-23T20:36:18.524Z,1.60
2018-05-23T20:38:46.913Z,1.60
2018-05-23T20:41:16.358Z,2.47
2018-05-23T20:43:44.751Z,3.90
2018-05-23T20:46:13.893Z,1.70
2018-05-23T20:48:42.256Z,2.30
2018-05-23T20:51:10.604Z,2.10
2018-05-23T20:53:38.962Z,1.90
2018-05-23T20:56:07.369Z,2.07
2018-05-23T20:58:36.509Z,1.80
2018-05-23T21:01:04.864Z,1.77
2018-05-23T21:03:33.317Z,2.27
2018-05-23T21:06:01.689Z,2.03
2018-05-23T21:08:30.948Z,2.40
2018-05-23T21:10:59.343Z,2.30
2018-05-23T21:13:27.820Z,2.23
2018-05-23T21:15:56.195Z,1.70
2018-05-23T21:18:24.582Z,2.10
2018-05-23T21:20:52.944Z,1.83
2018-05-23T21:23:21.304Z,2.47
2018-05-23T21:25:49.694Z,2.13
2018-05-23T21:28:18.054Z,1.50
2018-05-23T21:30:46.407Z,1.77
2018-05-23T21:33:14.755Z,2.53
2018-05-23T21:35:43.088Z,2.30
2018-05-23T21:38:11.450Z,2.30
2018-05-23T21:40:40.574Z,1.87
2018-05-23T21:43:08.948Z,2.17
2018-05-23T21:45:37.332Z,2.00
2018-05-23T21:48:05.731Z,2.70
2018-05-23T21:50:34.130Z,2.40
2018-05-23T21:53:02.880Z,2.70
2018-05-23T21:55:31.402Z,2.50
2018-05-23T21:57:59.784Z,2.60
2018-05-23T22:00:28.145Z,2.90
2018-05-23T22:02:56.485Z,2.40
2018-05-23T22:05:25.619Z,2.80
2018-05-23T22:07:54.391Z,2.90
2018-05-23T22:10:22.849Z,2.70
2018-05-23T22:12:51.218Z,2.60
2018-05-23T22:15:20.338Z,3.00
2018-05-23T22:17:48.733Z,2.40
2018-05-23T22:20:17.632Z,2.27
2018-05-23T22:22:46.022Z,2.30
2018-05-23T22:25:14.367Z,2.17
2018-05-23T22:27:42.753Z,2.00
2018-05-23T22:30:11.143Z,2.47
2018-05-23T22:32:39.530Z,2.50
2018-05-23T22:35:07.881Z,2.53
2018-05-23T22:37:36.326Z,2.47
2018-05-23T22:40:04.691Z,2.70
2018-05-23T22:42:33.075Z,3.20
2018-05-23T22:45:01.489Z,3.07
2018-05-23T22:47:29.826Z,3.50
2018-05-23T22:49:58.197Z,2.80
2018-05-23T22:52:26.556Z,2.57
2018-05-23T22:54:54.955Z,3.00
2018-05-23T22:57:23.331Z,2.43
2018-05-23T22:59:51.691Z,2.60
2018-05-23T23:02:20.063Z,2.80
2018-05-23T23:04:48.413Z,3.00
2018-05-23T23:07:17.543Z,2.80
2018-05-23T23:09:45.904Z,3.47
2018-05-23T23:12:14.297Z,2.73
2018-05-23T23:14:42.647Z,3.00
2018-05-23T23:17:11.033Z,3.17
2018-05-23T23:19:39.439Z,3.20
2018-05-23T23:22:07.805Z,3.27
2018-05-23T23:24:36.163Z,3.63
2018-05-23T23:27:04.529Z,3.17
2018-05-23T23:29:33.687Z,3.17
2018-05-23T23:32:02.061Z,2.50
2018-05-23T23:34:30.434Z,2.97
2018-05-23T23:36:58.903Z,2.97
2018-05-23T23:39:27.282Z,3.00
2018-05-23T23:41:55.622Z,2.20
2018-05-23T23:44:24.718Z,2.70
2018-05-23T23:46:53.941Z,2.60
2018-05-23T23:49:22.288Z,2.50
2018-05-23T23:51:51.393Z,2.43
2018-05-23T23:54:20.540Z,3.17
2018-05-23T23:56:49.671Z,3.10
2018-05-23T23:59:18.102Z,3.00
